Time;durP1;ratioP1;P1;durP2;ratioP2;P2;SDS_P1;SDS_P2;PMS_P1;PMS_P2;Temp;Humidity;BMP_temperature;BMP_pressure;BME280_temperature;BME280_humidity;BME280_pressure;Samples;Min_cycle;Max_cycle;Signal;HPM_P1;HPM_P2
2022/10/27 00:00:29;;;;;;;27.10;15.10;;;;;;;5.19;93.92;99677.45;2170038;81;20961;-83
2022/10/27 00:03:29;;;;;;;25.70;16.33;;;;;;;5.19;93.58;99680.92;2171115;81;20981;-84
2022/10/27 00:06:30;;;;;;;44.93;17.93;;;;;;;5.19;93.44;99682.63;2170740;81;20977;-84
2022/10/27 00:09:30;;;;;;;27.00;16.67;;;;;;;5.13;93.03;99680.64;2170537;81;20949;-84
2022/10/27 00:12:30;;;;;;;34.57;16.23;;;;;;;5.11;93.21;99683.56;2172306;81;20984;-84
2022/10/27 00:15:31;;;;;;;31.47;16.07;;;;;;;5.06;93.19;99682.05;2171712;81;21028;-85
2022/10/27 00:18:31;;;;;;;40.20;16.93;;;;;;;5.04;93.25;99676.33;2172979;81;20906;-85
2022/10/27 00:21:32;;;;;;;24.37;15.20;;;;;;;5.02;93.24;99672.38;2171514;81;21348;-83
2022/10/27 00:24:32;;;;;;;50.33;18.40;;;;;;;5.01;93.20;99674.48;2172246;81;20968;-83
2022/10/27 00:27:33;;;;;;;28.43;16.33;;;;;;;4.98;93.18;99676.04;2171788;81;20941;-83
2022/10/27 00:30:33;;;;;;;24.43;16.00;;;;;;;4.97;93.45;99676.45;2169870;81;21009;-83
2022/10/27 00:33:33;;;;;;;113.20;21.70;;;;;;;4.96;93.11;99680.26;2170548;81;20933;-84
2022/10/27 00:36:34;;;;;;;59.53;16.47;;;;;;;4.94;93.20;99680.19;2170584;81;21419;-83
2022/10/27 00:39:34;;;;;;;30.10;16.47;;;;;;;4.94;93.00;99683.18;2170793;81;20980;-83
2022/10/27 00:42:35;;;;;;;25.37;15.30;;;;;;;4.91;92.40;99681.73;2169954;81;20925;-83
2022/10/27 00:45:35;;;;;;;51.23;17.10;;;;;;;4.86;92.36;99684.11;2170065;81;21015;-86
2022/10/27 00:48:35;;;;;;;27.60;15.70;;;;;;;4.84;92.80;99690.02;2171666;81;20972;-83
2022/10/27 00:51:36;;;;;;;24.77;15.77;;;;;;;4.86;92.86;99689.69;2172763;81;20937;-83
2022/10/27 00:54:36;;;;;;;23.20;16.23;;;;;;;4.85;92.69;99692.69;2171475;81;20937;-84
2022/10/27 00:57:37;;;;;;;23.30;15.60;;;;;;;4.82;92.61;99689.95;2170745;81;20969;-83
2022/10/27 01:00:37;;;;;;;28.77;15.83;;;;;;;4.80;92.67;99691.58;2169918;81;20949;-84
2022/10/27 01:03:37;;;;;;;22.80;14.63;;;;;;;4.79;92.69;99692.39;2169952;81;20961;-83
2022/10/27 01:06:38;;;;;;;25.30;15.57;;;;;;;4.79;92.80;99696.27;2170751;81;20969;-83
2022/10/27 01:09:38;;;;;;;41.73;16.20;;;;;;;4.82;93.25;99692.54;2171048;81;20909;-84
2022/10/27 01:12:39;;;;;;;48.73;18.70;;;;;;;4.85;93.47;99695.67;2170965;81;20924;-83
2022/10/27 01:15:39;;;;;;;26.83;16.33;;;;;;;4.90;93.54;99694.20;2171096;81;21004;-83
2022/10/27 01:18:39;;;;;;;24.63;14.87;;;;;;;4.91;93.00;99696.86;2170859;81;20898;-83
2022/10/27 01:21:40;;;;;;;21.33;13.90;;;;;;;4.88;92.55;99704.88;2170117;81;21375;-83
2022/10/27 01:24:40;;;;;;;66.60;17.90;;;;;;;4.87;92.67;99705.28;2171108;81;21289;-83
2022/10/27 01:27:41;;;;;;;111.90;20.43;;;;;;;4.88;92.75;99701.89;2171181;81;20910;-84
2022/10/27 01:30:41;;;;;;;74.93;17.23;;;;;;;4.91;92.88;99708.50;2171521;81;20945;-83
2022/10/27 01:33:41;;;;;;;25.03;14.90;;;;;;;4.89;92.48;99707.95;2173260;81;20937;-83
2022/10/27 01:36:42;;;;;;;190.80;24.13;;;;;;;4.87;92.48;99712.16;2171126;82;20992;-84
2022/10/27 01:39:42;;;;;;;30.20;16.17;;;;;;;4.83;92.12;99711.13;2171281;81;20965;-83
2022/10/27 01:42:43;;;;;;;22.10;14.93;;;;;;;4.80;91.99;99713.16;2172770;81;20933;-84
2022/10/27 01:45:43;;;;;;;36.13;15.37;;;;;;;4.78;92.16;99717.38;2171186;81;20906;-83
2022/10/27 01:48:44;;;;;;;30.17;14.97;;;;;;;4.74;91.66;99708.98;2170306;81;20925;-83
2022/10/27 01:51:44;;;;;;;213.10;26.30;;;;;;;4.69;91.38;99714.75;2170210;81;21300;-83
2022/10/27 01:54:44;;;;;;;55.20;16.27;;;;;;;4.64;91.76;99714.52;2170107;81;20941;-83
2022/10/27 01:57:45;;;;;;;129.53;20.83;;;;;;;4.65;91.47;99718.00;2170498;81;21044;-80
2022/10/27 02:00:45;;;;;;;80.50;19.33;;;;;;;4.66;91.88;99719.36;2172341;81;20977;-84
2022/10/27 02:03:46;;;;;;;37.73;14.93;;;;;;;4.66;91.67;99726.23;2170840;81;20960;-84
2022/10/27 02:06:46;;;;;;;22.70;13.70;;;;;;;4.66;91.64;99739.16;2170284;81;20928;-84
2022/10/27 02:09:46;;;;;;;18.57;14.77;;;;;;;4.65;90.89;99736.09;2172805;81;20929;-84
2022/10/27 02:12:47;;;;;;;22.43;14.43;;;;;;;4.58;90.87;99736.20;2172341;81;20906;-84
2022/10/27 02:15:47;;;;;;;145.17;20.90;;;;;;;4.55;90.86;99742.52;2173365;81;21000;-84
2022/10/27 02:18:48;;;;;;;30.87;14.83;;;;;;;4.54;91.36;99742.03;2172251;81;20965;-83
2022/10/27 02:21:48;;;;;;;268.53;32.27;;;;;;;4.51;90.71;99741.87;2172999;81;20977;-85
2022/10/27 02:24:50;;;;;;;31.07;15.63;;;;;;;4.45;91.08;99750.22;2172924;81;20980;-83
2022/10/27 02:27:49;;;;;;;34.13;16.10;;;;;;;4.45;91.02;99748.92;2172567;81;20941;-84
2022/10/27 02:30:49;;;;;;;84.27;18.47;;;;;;;4.40;90.97;99751.69;2175163;81;21340;-84
2022/10/27 02:33:50;;;;;;;32.13;16.17;;;;;;;4.33;91.01;99749.56;2179893;82;20940;-84
2022/10/27 02:36:50;;;;;;;22.47;15.00;;;;;;;4.31;91.28;99747.30;2173725;82;20969;-83
2022/10/27 02:39:50;;;;;;;19.20;13.70;;;;;;;4.28;90.95;99748.45;2170743;81;20994;-83
2022/10/27 02:42:51;;;;;;;26.20;15.53;;;;;;;4.24;90.83;99745.62;2170493;81;20953;-83
2022/10/27 02:45:51;;;;;;;21.07;14.57;;;;;;;4.20;90.97;99745.88;2171184;81;20969;-84
2022/10/27 02:48:52;;;;;;;25.70;15.47;;;;;;;4.18;91.06;99752.66;2170105;81;20997;-83
2022/10/27 02:51:52;;;;;;;35.30;15.27;;;;;;;4.16;91.15;99751.70;2171485;81;20925;-84
2022/10/27 02:54:53;;;;;;;52.13;17.10;;;;;;;4.16;91.17;99756.86;2171509;81;20929;-84
2022/10/27 02:57:53;;;;;;;25.03;14.07;;;;;;;4.16;91.48;99756.86;2171112;82;21383;-84
2022/10/27 03:00:54;;;;;;;25.77;14.10;;;;;;;4.16;91.23;99764.21;2171057;81;20929;-84
2022/10/27 03:03:54;;;;;;;19.80;14.20;;;;;;;4.11;91.18;99764.78;2170765;81;20929;-84
2022/10/27 03:06:54;;;;;;;28.03;15.03;;;;;;;4.06;90.55;99758.48;2171472;81;20941;-84
2022/10/27 03:09:55;;;;;;;55.57;15.57;;;;;;;3.98;90.60;99762.38;2170770;81;21332;-84
2022/10/27 03:12:55;;;;;;;23.13;13.97;;;;;;;3.91;90.76;99759.88;2170705;81;20949;-84
2022/10/27 03:15:55;;;;;;;22.10;13.50;;;;;;;3.87;90.84;99760.92;2170860;81;21048;-84
2022/10/27 03:18:56;;;;;;;26.63;14.30;;;;;;;3.82;90.72;99762.86;2171262;81;20972;-84
2022/10/27 03:21:56;;;;;;;29.20;14.53;;;;;;;3.79;90.73;99764.39;2170379;81;21328;-84
2022/10/27 03:24:57;;;;;;;25.63;14.67;;;;;;;3.76;90.69;99767.70;2169467;81;21020;-84
2022/10/27 03:27:57;;;;;;;19.13;14.57;;;;;;;3.74;91.14;99763.26;2169734;81;21016;-83
2022/10/27 03:30:59;;;;;;;23.83;14.93;;;;;;;3.73;91.21;99759.78;2170229;81;20981;-80
2022/10/27 03:33:59;;;;;;;37.23;15.57;;;;;;;3.73;91.18;99770.12;2170221;81;20969;-86
2022/10/27 03:36:59;;;;;;;20.40;13.60;;;;;;;3.73;91.74;99773.98;2169870;81;21340;-85
2022/10/27 03:40:00;;;;;;;64.37;17.07;;;;;;;3.74;91.58;99771.89;2169651;81;20965;-85
2022/10/27 03:43:00;;;;;;;36.70;15.90;;;;;;;3.72;91.78;99771.33;2170101;82;20985;-84
2022/10/27 03:46:01;;;;;;;22.40;14.03;;;;;;;3.71;91.46;99771.73;2167518;81;22077;-85
2022/10/27 03:49:01;;;;;;;48.67;14.73;;;;;;;3.69;91.50;99774.63;2166879;81;21055;-83
2022/10/27 03:52:02;;;;;;;26.77;15.13;;;;;;;3.78;97.20;99776.81;2168797;81;20984;-83
2022/10/27 03:55:02;;;;;;;21.73;14.10;;;;;;;4.02;92.24;99771.66;2170221;81;21008;-84
2022/10/27 03:58:02;;;;;;;25.83;14.80;;;;;;;3.92;91.51;99767.22;2168790;81;21562;-83
2022/10/27 04:01:03;;;;;;;141.30;21.10;;;;;;;3.87;91.49;99778.59;2171584;81;20956;-85
2022/10/27 04:04:03;;;;;;;29.07;14.23;;;;;;;3.81;91.51;99776.58;2169287;82;20992;-84
2022/10/27 04:07:04;;;;;;;23.80;13.90;;;;;;;3.77;90.89;99787.55;2168867;81;21012;-84
2022/10/27 04:10:04;;;;;;;22.50;13.77;;;;;;;3.69;90.56;99787.55;2169993;81;21407;-84
2022/10/27 04:13:04;;;;;;;23.70;14.13;;;;;;;3.69;90.75;99784.08;2169234;81;20960;-83
2022/10/27 04:16:05;;;;;;;16.10;13.43;;;;;;;3.65;90.69;99783.02;2169455;81;21012;-83
2022/10/27 04:19:05;;;;;;;87.07;16.73;;;;;;;3.61;90.58;99778.50;2169169;81;20957;-84
2022/10/27 04:22:06;;;;;;;21.17;13.43;;;;;;;3.59;90.74;99778.81;2167497;81;20988;-82
2022/10/27 04:25:06;;;;;;;20.07;14.17;;;;;;;3.56;90.56;99776.07;2168523;81;21958;-84
2022/10/27 04:28:06;;;;;;;22.30;13.17;;;;;;;3.54;90.83;99780.27;2168556;81;21000;-84
2022/10/27 04:31:07;;;;;;;26.93;15.13;;;;;;;3.55;90.92;99787.61;2168723;81;21079;-83
2022/10/27 04:34:07;;;;;;;22.77;13.00;;;;;;;3.55;91.09;99783.33;2166603;82;21395;-84
2022/10/27 04:37:08;;;;;;;21.23;13.73;;;;;;;3.57;91.24;99783.01;2166366;81;21036;-83
2022/10/27 04:40:08;;;;;;;87.27;18.53;;;;;;;3.60;91.34;99790.92;2169754;81;21284;-85
2022/10/27 04:43:10;;;;;;;34.40;15.63;;;;;;;3.62;91.69;99793.19;2159320;82;21046;-86
2022/10/27 04:46:11;;;;;;;17.93;13.43;;;;;;;6.86;100.00;99782.10;2167446;81;21067;-87
2022/10/27 04:49:11;;;;;;;17.97;13.77;;;;;;;9.05;94.56;99782.12;2167383;81;20961;-89
2022/10/27 04:52:12;;;;;;;24.70;14.17;;;;;;;10.11;85.73;99775.41;2166965;81;21342;-89
2022/10/27 04:55:12;;;;;;;41.67;14.63;;;;;;;10.77;80.28;99781.64;2170451;81;21048;-84
2022/10/27 04:58:13;;;;;;;19.17;13.37;;;;;;;11.02;74.14;99782.26;2169613;81;21282;-85
2022/10/27 05:01:13;;;;;;;23.40;12.87;;;;;;;10.04;71.95;99786.09;2169646;81;21384;-85
2022/10/27 05:04:16;;;;;;;135.47;18.10;;;;;;;8.53;71.85;99795.95;2169878;81;21400;-84
2022/10/27 05:07:16;;;;;;;54.20;14.63;;;;;;;7.43;73.17;99809.09;2165013;82;21032;-85
2022/10/27 05:10:16;;;;;;;22.90;13.40;;;;;;;6.61;74.60;99803.55;2170857;82;21051;-85
2022/10/27 05:13:16;;;;;;;73.43;15.50;;;;;;;6.01;75.79;99812.08;2169813;82;21403;-86
2022/10/27 05:16:17;;;;;;;19.97;14.00;;;;;;;5.53;77.31;99817.16;2168480;81;21079;-86
2022/10/27 05:19:17;;;;;;;40.67;15.83;;;;;;;5.20;78.66;99825.46;2167993;81;21270;-85
2022/10/27 05:22:18;;;;;;;24.30;13.37;;;;;;;4.91;79.54;99827.51;2170754;81;21411;-83
2022/10/27 05:25:20;;;;;;;30.13;13.80;;;;;;;4.66;80.42;99834.45;2157303;82;20996;-85
2022/10/27 05:28:20;;;;;;;35.30;13.80;;;;;;;4.46;81.12;99835.13;2171009;81;20972;-86
2022/10/27 05:31:21;;;;;;;44.27;14.60;;;;;;;4.29;81.61;99837.20;2167930;82;21024;-86
2022/10/27 05:34:21;;;;;;;26.73;14.10;;;;;;;4.21;82.83;99840.69;2166293;81;21032;-85
2022/10/27 05:37:22;;;;;;;26.17;13.50;;;;;;;4.16;83.08;99842.14;2165908;81;21071;-85
2022/10/27 05:40:22;;;;;;;38.40;14.10;;;;;;;4.09;83.74;99846.09;2164962;81;21011;-84
2022/10/27 05:43:23;;;;;;;69.27;16.73;;;;;;;4.08;84.35;99850.77;2164558;81;20989;-85
2022/10/27 05:46:23;;;;;;;58.03;14.77;;;;;;;4.16;85.24;99853.36;2166426;81;21082;-85
2022/10/27 05:49:23;;;;;;;1999.90;164.97;;;;;;;4.26;85.89;99859.02;2166909;81;21474;-84
2022/10/27 05:52:24;;;;;;;83.73;18.50;;;;;;;4.33;86.83;99863.30;2167182;81;21031;-86
2022/10/27 05:55:26;;;;;;;35.43;14.87;;;;;;;4.36;86.39;99861.31;2166114;81;21444;-86
2022/10/27 05:58:31;;;;;;;18.00;13.57;;;;;;;4.37;86.45;99861.39;2162167;82;21036;-85
2022/10/27 06:01:29;;;;;;;28.83;14.80;;;;;;;4.42;86.74;99858.64;2160970;82;20996;-84
2022/10/27 06:04:29;;;;;;;32.53;16.03;;;;;;;4.58;87.48;99859.03;2167930;81;20949;-84
2022/10/27 06:07:29;;;;;;;41.17;17.03;;;;;;;4.58;87.48;99859.03;2167364;81;20992;-85
2022/10/27 06:10:30;;;;;;;47.47;21.93;;;;;;;4.66;88.24;99859.02;2168504;81;20984;-83
2022/10/27 06:13:30;;;;;;;61.33;18.83;;;;;;;4.78;88.90;99863.52;2167805;81;21383;-83
2022/10/27 06:16:31;;;;;;;53.97;19.03;;;;;;;4.92;89.31;99865.51;2167712;81;21060;-80
2022/10/27 06:19:31;;;;;;;39.53;17.37;;;;;;;5.05;89.83;99871.78;2168331;81;20961;-83
2022/10/27 06:22:32;;;;;;;47.37;18.50;;;;;;;5.26;89.73;99874.98;2167853;81;20988;-85
2022/10/27 06:25:32;;;;;;;33.27;17.33;;;;;;;5.35;89.77;99876.72;2167186;81;21023;-85
2022/10/27 06:28:33;;;;;;;28.20;16.20;;;;;;;5.46;89.64;99884.60;2166873;81;20976;-84
2022/10/27 06:31:33;;;;;;;106.67;19.40;;;;;;;5.53;89.86;99878.91;2168378;81;21040;-85
2022/10/27 06:34:33;;;;;;;70.00;19.63;;;;;;;5.61;89.83;99889.22;2168824;81;20981;-85
2022/10/27 06:37:34;;;;;;;34.73;16.60;;;;;;;5.66;89.97;99890.33;2168834;81;21023;-85
2022/10/27 06:40:34;;;;;;;23.73;14.50;;;;;;;5.84;90.40;99895.90;2168927;81;21001;-84
2022/10/27 06:43:35;;;;;;;22.77;16.23;;;;;;;5.98;90.14;99903.95;2167430;81;21027;-83
2022/10/27 06:46:38;;;;;;;38.73;17.30;;;;;;;6.09;90.19;99905.78;2169493;81;21007;-85
2022/10/27 06:49:35;;;;;;;54.73;17.10;;;;;;;6.22;90.31;99910.30;2167791;81;20992;-85
2022/10/27 06:52:36;;;;;;;29.83;16.03;;;;;;;6.38;90.70;99914.06;2169097;81;21027;-85
2022/10/27 06:55:36;;;;;;;20.60;15.87;;;;;;;6.57;90.90;99918.38;2170887;81;21376;-85
2022/10/27 06:58:38;;;;;;;26.17;14.90;;;;;;;6.76;91.09;99919.19;2170364;81;20996;-85
2022/10/27 07:01:37;;;;;;;32.17;15.63;;;;;;;6.89;90.62;99918.90;2169494;82;20969;-85
2022/10/27 07:04:37;;;;;;;27.93;15.60;;;;;;;7.02;90.68;99926.02;2171155;81;20988;-85
2022/10/27 07:07:38;;;;;;;215.53;24.67;;;;;;;7.19;90.76;99936.23;2171338;81;20925;-86
2022/10/27 07:10:38;;;;;;;29.47;16.13;;;;;;;7.38;90.96;99940.49;2169945;81;21020;-85
2022/10/27 07:13:41;;;;;;;137.20;22.17;;;;;;;7.56;91.20;99946.45;2156122;82;21000;-85
2022/10/27 07:16:41;;;;;;;61.27;16.50;;;;;;;7.73;91.28;99941.53;2170011;81;21305;-84
2022/10/27 07:19:42;;;;;;;21.87;14.37;;;;;;;7.89;91.18;99946.96;2167545;81;20988;-84
2022/10/27 07:22:42;;;;;;;77.50;18.27;;;;;;;8.03;90.80;99937.99;2167376;81;20972;-85
2022/10/27 07:25:42;;;;;;;37.83;16.60;;;;;;;8.46;91.32;99939.67;2168543;81;21474;-85
2022/10/27 07:28:46;;;;;;;21.80;13.70;;;;;;;8.46;91.32;99939.67;2170107;81;21345;-84
2022/10/27 07:31:46;;;;;;;22.60;14.97;;;;;;;8.65;90.98;99942.13;2169719;81;21012;-85
2022/10/27 07:34:47;;;;;;;24.50;14.20;;;;;;;8.83;91.38;99941.53;2169056;81;21035;-85
2022/10/27 07:37:48;;;;;;;33.17;14.07;;;;;;;9.04;90.86;99941.82;2167836;81;21066;-84
2022/10/27 07:40:49;;;;;;;23.53;13.90;;;;;;;9.22;90.98;99943.34;2167931;81;20992;-85
2022/10/27 07:43:48;;;;;;;15.10;12.63;;;;;;;9.46;91.19;99945.90;2167030;81;20980;-85
2022/10/27 07:46:49;;;;;;;22.90;13.53;;;;;;;9.66;90.85;99948.31;2166211;81;21024;-83
2022/10/27 07:49:49;;;;;;;17.40;13.23;;;;;;;9.80;90.55;99949.65;2166984;81;21392;-85
2022/10/27 07:52:50;;;;;;;14.77;12.70;;;;;;;10.02;90.58;99955.13;2167883;81;21032;-84
2022/10/27 07:55:51;;;;;;;18.03;12.87;;;;;;;10.24;90.33;99958.91;2167920;81;21455;-84
2022/10/27 07:58:51;;;;;;;16.57;12.68;;;;;;;10.49;90.67;99961.88;2166873;81;21004;-85
2022/10/27 08:01:51;;;;;;;19.37;13.90;;;;;;;10.72;90.91;99965.16;2167931;81;21000;-85
2022/10/27 08:04:53;;;;;;;26.00;14.90;;;;;;;10.95;91.44;99965.81;2167286;81;20953;-84
2022/10/27 08:07:52;;;;;;;34.00;14.87;;;;;;;11.21;91.70;99955.66;2168793;81;20969;-82
2022/10/27 08:10:52;;;;;;;21.00;16.73;;;;;;;11.48;91.78;99955.11;2167203;81;20992;-84
2022/10/27 08:13:53;;;;;;;20.32;16.17;;;;;;;11.76;91.44;99959.72;2167322;81;21031;-84
2022/10/27 08:16:53;;;;;;;23.65;17.87;;;;;;;12.01;90.72;99966.47;2168803;81;21056;-83
2022/10/27 08:19:54;;;;;;;21.57;17.10;;;;;;;12.22;90.67;99959.58;2166988;81;20988;-82
2022/10/27 08:22:54;;;;;;;31.70;17.82;;;;;;;12.36;89.87;99964.70;2168539;81;21004;-85
2022/10/27 08:25:54;;;;;;;24.15;17.77;;;;;;;12.58;90.14;99969.55;2166819;81;20914;-84
2022/10/27 08:28:55;;;;;;;103.20;18.98;;;;;;;12.79;89.31;99969.55;2167770;81;20996;-84
2022/10/27 08:31:55;;;;;;;57.17;18.12;;;;;;;13.00;89.15;99968.67;2167073;81;21001;-85
2022/10/27 08:34:56;;;;;;;25.12;17.12;;;;;;;13.18;88.56;99974.34;2166465;81;21256;-84
2022/10/27 08:37:56;;;;;;;26.52;16.67;;;;;;;13.38;88.12;99977.34;2166226;81;21011;-83
2022/10/27 08:40:56;;;;;;;23.02;16.67;;;;;;;13.53;87.10;99989.84;2165821;81;21005;-83
2022/10/27 08:43:58;;;;;;;24.92;16.17;;;;;;;13.65;87.20;99987.02;2166098;82;20977;-83
2022/10/27 08:46:57;;;;;;;22.70;15.95;;;;;;;13.87;86.83;99984.36;2167156;81;21046;-84
2022/10/27 08:49:58;;;;;;;26.37;16.48;;;;;;;14.14;86.70;99983.92;2166857;81;20988;-81
2022/10/27 08:53:01;;;;;;;42.70;17.37;;;;;;;14.40;85.72;99984.31;2167878;81;20988;-82
2022/10/27 08:56:01;;;;;;;355.45;34.43;;;;;;;14.62;85.26;99984.22;2167579;81;21408;-81
2022/10/27 08:59:02;;;;;;;63.48;18.85;;;;;;;14.70;84.50;99989.58;2166656;81;20980;-82
2022/10/27 09:02:02;;;;;;;27.58;17.35;;;;;;;14.66;84.09;99982.96;2169328;82;20961;-83
2022/10/27 09:05:02;;;;;;;128.10;22.85;;;;;;;14.65;83.92;99977.69;2168245;81;21020;-82
2022/10/27 09:08:03;;;;;;;27.80;17.92;;;;;;;14.66;84.07;99972.45;2168935;81;20964;-78
2022/10/27 09:11:03;;;;;;;36.93;17.98;;;;;;;14.71;83.98;99979.52;2169259;81;20918;-81
2022/10/27 09:14:04;;;;;;;29.32;16.93;;;;;;;14.73;84.16;99968.59;2167852;81;21008;-84
2022/10/27 09:17:04;;;;;;;22.70;16.07;;;;;;;14.80;83.70;99970.03;2166862;81;21460;-85
2022/10/27 09:20:04;;;;;;;24.05;14.63;;;;;;;15.00;83.64;99970.71;2166406;81;20968;-84
2022/10/27 09:23:05;;;;;;;32.55;16.52;;;;;;;15.17;83.13;99971.78;2166365;81;20996;-84
2022/10/27 09:26:05;;;;;;;69.22;17.07;;;;;;;15.36;83.15;99976.81;2167249;81;21185;-84
2022/10/27 09:29:06;;;;;;;29.45;15.60;;;;;;;15.46;82.26;99974.73;2166864;81;22024;-80
2022/10/27 09:32:06;;;;;;;22.95;14.63;;;;;;;15.51;81.71;99971.27;2167814;81;21047;-81
2022/10/27 09:35:06;;;;;;;81.78;18.77;;;;;;;15.55;81.56;99973.06;2167487;81;21238;-81
2022/10/27 09:38:07;;;;;;;24.35;14.93;;;;;;;15.63;81.73;99973.21;2167579;81;21019;-76
2022/10/27 09:41:07;;;;;;;17.05;13.58;;;;;;;15.70;81.35;99976.34;2165894;81;20984;-84
2022/10/27 09:44:08;;;;;;;20.10;15.25;;;;;;;15.75;80.97;99969.80;2168884;81;21044;-83
2022/10/27 09:47:08;;;;;;;23.20;14.87;;;;;;;15.86;80.55;99973.41;2166744;81;21078;-85
2022/10/27 09:50:11;;;;;;;224.40;25.23;;;;;;;15.88;80.51;99971.23;2167231;81;21032;-84
2022/10/27 09:53:11;;;;;;;31.00;15.13;;;;;;;15.95;80.49;99966.91;2157762;82;21032;-84
2022/10/27 09:56:11;;;;;;;34.45;14.07;;;;;;;16.05;80.55;99967.86;2167890;81;20992;-84
2022/10/27 09:59:12;;;;;;;19.70;13.15;;;;;;;16.12;80.24;99963.08;2166717;81;21535;-84
2022/10/27 10:02:12;;;;;;;14.58;12.60;;;;;;;16.18;79.83;99960.48;2168410;82;20988;-82
2022/10/27 10:05:13;;;;;;;21.75;12.98;;;;;;;16.24;79.76;99959.22;2168237;82;21280;-81
2022/10/27 10:08:13;;;;;;;14.73;12.18;;;;;;;16.36;79.23;99951.39;2168854;81;21056;-79
2022/10/27 10:11:13;;;;;;;22.77;13.05;;;;;;;16.40;79.10;99954.48;2166750;81;21047;-80
2022/10/27 10:14:14;;;;;;;21.35;11.90;;;;;;;16.45;78.65;99956.71;2166469;81;21403;-82
2022/10/27 10:17:14;;;;;;;19.37;11.60;;;;;;;16.61;78.51;99951.55;2166462;81;22020;-80
2022/10/27 10:20:15;;;;;;;14.30;11.30;;;;;;;16.70;78.57;99951.64;2167658;82;21016;-79
2022/10/27 10:23:15;;;;;;;13.62;11.10;;;;;;;16.84;77.84;99954.78;2168006;82;21038;-80
2022/10/27 10:26:15;;;;;;;31.85;11.85;;;;;;;16.77;77.54;99954.75;2167946;81;21974;-76
2022/10/27 10:29:16;;;;;;;20.75;12.53;;;;;;;16.82;77.67;99953.89;2164463;81;21416;-80
2022/10/27 10:32:16;;;;;;;19.12;11.78;;;;;;;16.87;77.66;99954.79;2166145;81;20957;-81
2022/10/27 10:35:17;;;;;;;24.90;11.70;;;;;;;16.85;77.34;99955.22;2168717;81;20957;-81
2022/10/27 10:38:17;;;;;;;16.93;10.05;;;;;;;16.96;78.33;99955.27;2168016;81;21720;-81
2022/10/27 10:41:20;;;;;;;14.53;10.53;;;;;;;17.09;77.87;99951.79;2167822;81;21734;-81
2022/10/27 10:44:21;;;;;;;16.00;10.87;;;;;;;17.18;77.64;99954.89;2169406;81;20984;-83
2022/10/27 10:47:21;;;;;;;56.30;12.70;;;;;;;17.24;76.13;99952.70;2167302;81;21028;-83
2022/10/27 10:50:21;;;;;;;25.43;11.10;;;;;;;17.31;77.13;99950.09;2169386;82;21997;-82
2022/10/27 10:53:22;;;;;;;20.05;10.72;;;;;;;17.38;76.42;99951.02;2168744;82;21020;-84
2022/10/27 10:56:22;;;;;;;121.33;15.63;;;;;;;17.39;76.86;99954.09;2168295;81;21043;-82
2022/10/27 10:59:23;;;;;;;12.23;8.30;;;;;;;17.50;76.59;99953.67;2167588;81;20940;-83
2022/10/27 11:02:25;;;;;;;12.55;8.43;;;;;;;17.57;75.58;99951.92;2158670;82;21012;-84
2022/10/27 11:05:25;;;;;;;16.02;8.55;;;;;;;17.56;76.26;99948.84;2169996;81;21019;-82
2022/10/27 11:08:26;;;;;;;10.80;6.95;;;;;;;17.62;75.49;99952.37;2167037;81;20969;-83
2022/10/27 11:11:26;;;;;;;10.93;8.30;;;;;;;17.62;74.98;99958.97;2167524;81;21678;-83
2022/10/27 11:14:27;;;;;;;13.15;8.30;;;;;;;17.64;75.21;99955.02;2167322;82;21027;-82
2022/10/27 11:17:27;;;;;;;12.60;8.30;;;;;;;17.67;74.23;99959.01;2166459;81;21576;-83
2022/10/27 11:20:28;;;;;;;11.45;8.65;;;;;;;17.67;74.65;99947.13;2167369;81;20952;-86
2022/10/27 11:23:28;;;;;;;10.98;8.63;;;;;;;17.69;74.88;99944.92;2167822;81;21049;-81
2022/10/27 11:26:28;;;;;;;11.55;7.78;;;;;;;17.70;73.94;99944.05;2169911;82;21498;-81
2022/10/27 11:29:29;;;;;;;11.05;8.20;;;;;;;17.76;74.58;99952.41;2169063;81;21008;-81
2022/10/27 11:32:32;;;;;;;15.65;7.35;;;;;;;17.81;74.11;99949.33;2167214;81;20987;-80
2022/10/27 11:35:30;;;;;;;11.50;7.35;;;;;;;17.88;74.42;99951.53;2168031;82;20965;-79
2022/10/27 11:38:31;;;;;;;36.88;9.55;;;;;;;17.98;74.42;99949.33;2166834;81;21364;-81
2022/10/27 11:41:30;;;;;;;10.40;8.23;;;;;;;18.02;73.58;99945.80;2166966;81;20936;-82
2022/10/27 11:44:31;;;;;;;15.35;8.40;;;;;;;18.03;72.91;99943.16;2166587;81;20976;-82
2022/10/27 11:47:31;;;;;;;13.03;7.40;;;;;;;18.02;72.65;99943.16;2167678;81;21048;-82
2022/10/27 11:50:32;;;;;;;35.52;8.55;;;;;;;18.08;73.40;99944.48;2167032;81;20989;-84
2022/10/27 11:53:32;;;;;;;12.58;6.90;;;;;;;18.16;72.45;99945.34;2168523;81;21031;-84
2022/10/27 11:56:32;;;;;;;9.65;6.80;;;;;;;18.17;70.82;99949.75;2167345;81;21052;-84
2022/10/27 11:59:34;;;;;;;10.10;6.60;;;;;;;18.16;71.96;99951.95;2166048;82;21048;-84
2022/10/27 12:02:34;;;;;;;11.08;6.70;;;;;;;18.20;71.70;99957.67;2166856;81;21403;-85
2022/10/27 12:05:35;;;;;;;8.40;6.12;;;;;;;18.19;69.98;99951.95;2166934;82;20957;-85
2022/10/27 12:08:35;;;;;;;34.48;8.20;;;;;;;18.20;71.10;99951.06;2168401;82;21407;-78
2022/10/27 12:11:35;;;;;;;9.78;7.30;;;;;;;18.21;71.31;99938.77;2163082;81;21008;-79
2022/10/27 12:14:36;;;;;;;9.65;7.08;;;;;;;18.16;71.00;99936.09;2162470;81;20996;-82
2022/10/27 12:17:36;;;;;;;15.35;8.73;;;;;;;18.14;70.63;99939.19;2167682;81;21078;-84
2022/10/27 12:20:37;;;;;;;9.53;6.78;;;;;;;18.10;70.87;99941.39;2167553;81;20972;-83
2022/10/27 12:23:37;;;;;;;12.13;8.13;;;;;;;18.06;70.16;99942.27;2167347;81;21392;-83
2022/10/27 12:26:37;;;;;;;10.05;8.23;;;;;;;18.01;70.79;99940.08;2167500;81;20932;-80
2022/10/27 12:29:38;;;;;;;9.60;7.80;;;;;;;18.01;71.60;99937.44;2162652;82;20980;-80
2022/10/27 12:32:38;;;;;;;10.70;7.70;;;;;;;18.03;71.64;99935.67;2166565;81;21041;-81
2022/10/27 12:35:39;;;;;;;11.40;6.55;;;;;;;18.02;71.90;99929.95;2169328;81;20968;-81
2022/10/27 12:38:39;;;;;;;20.62;7.20;;;;;;;18.04;72.18;99925.55;2169549;81;20985;-81
2022/10/27 12:41:40;;;;;;;19.80;6.90;;;;;;;18.03;72.32;99929.06;2168525;81;20977;-80
2022/10/27 12:44:40;;;;;;;10.78;6.40;;;;;;;18.05;72.18;99925.55;2167938;81;20990;-80
2022/10/27 12:47:40;;;;;;;18.05;6.60;;;;;;;18.13;72.37;99931.70;2169960;81;21012;-83
2022/10/27 12:50:41;;;;;;;18.20;6.58;;;;;;;18.20;72.55;99919.36;2170287;81;21000;-82
2022/10/27 12:53:41;;;;;;;17.95;7.45;;;;;;;18.22;72.24;99916.30;2168874;81;20948;-83
2022/10/27 12:56:42;;;;;;;9.78;6.55;;;;;;;18.22;72.09;99925.99;2167399;81;21036;-82
2022/10/27 12:59:42;;;;;;;10.65;6.37;;;;;;;18.20;71.23;99924.64;2168407;80;20996;-82
2022/10/27 13:02:42;;;;;;;14.65;7.50;;;;;;;18.18;70.87;99924.20;2169810;81;20968;-82
2022/10/27 13:05:43;;;;;;;10.08;6.33;;;;;;;18.11;71.46;99919.38;2168453;82;20948;-82
2022/10/27 13:08:43;;;;;;;12.43;6.75;;;;;;;18.12;71.73;99921.12;2169090;82;20981;-81
2022/10/27 13:11:44;;;;;;;9.55;6.28;;;;;;;18.13;71.92;99921.12;2168025;81;20965;-80
2022/10/27 13:14:44;;;;;;;14.95;6.55;;;;;;;18.14;71.64;99919.36;2166253;81;20953;-80
2022/10/27 13:17:44;;;;;;;11.88;6.50;;;;;;;18.10;71.88;99913.20;2169111;81;21348;-82
2022/10/27 13:20:45;;;;;;;9.68;5.85;;;;;;;18.10;71.48;99917.61;2168734;81;21007;-79
2022/10/27 13:23:45;;;;;;;9.15;6.70;;;;;;;18.10;71.76;99915.84;2164741;81;21831;-83
2022/10/27 13:26:50;;;;;;;14.43;6.12;;;;;;;18.11;71.53;99915.41;2167626;81;21051;-82
2022/10/27 13:29:46;;;;;;;8.30;6.15;;;;;;;18.06;71.27;99913.21;2165839;81;20973;-82
2022/10/27 13:32:46;;;;;;;22.05;7.42;;;;;;;18.05;71.68;99916.73;2166308;82;21004;-83
2022/10/27 13:35:47;;;;;;;20.57;6.80;;;;;;;18.03;72.48;99919.83;2166915;81;21039;-81
2022/10/27 13:38:47;;;;;;;11.22;7.10;;;;;;;18.04;72.80;99922.47;2166991;81;20972;-82
2022/10/27 13:41:48;;;;;;;9.63;6.53;;;;;;;18.04;72.56;99918.50;2167020;81;21396;-82
2022/10/27 13:44:48;;;;;;;10.13;6.87;;;;;;;18.02;72.47;99920.70;2168412;80;20992;-82
2022/10/27 13:47:49;;;;;;;13.08;7.33;;;;;;;17.98;72.68;99921.59;2168009;81;21180;-78
2022/10/27 13:50:49;;;;;;;29.30;7.72;;;;;;;17.99;72.99;99922.03;2167849;81;20981;-78
2022/10/27 13:53:49;;;;;;;12.45;6.95;;;;;;;18.07;72.84;99913.66;2168287;81;21027;-78
2022/10/27 13:56:50;;;;;;;11.28;6.83;;;;;;;18.15;72.96;99925.09;2167915;81;21474;-78